sensor_id;sensor_type;location;lat;lon;timestamp;pressure;altitude;pressure_sealevel;temperature;humidity
55277;BME280;41136;51.478;-2.610;2023-03-07T00:02:05;99196.82;;;6.55;100.00
55277;BME280;41136;51.478;-2.610;2023-03-07T00:04:31;99194.14;;;6.65;100.00
55277;BME280;41136;51.478;-2.610;2023-03-07T00:06:56;99191.35;;;7.42;100.00
55277;BME280;41136;51.478;-2.610;2023-03-07T00:09:22;99187.08;;;6.79;100.00
55277;BME280;41136;51.478;-2.610;2023-03-07T00:11:48;99186.57;;;6.06;100.00
55277;BME280;41136;51.478;-2.610;2023-03-07T00:14:12;99178.46;;;6.42;100.00
55277;BME280;41136;51.478;-2.610;2023-03-07T00:16:39;99173.58;;;6.48;100.00
55277;BME280;41136;51.478;-2.610;2023-03-07T00:19:03;99183.60;;;6.63;100.00
55277;BME280;41136;51.478;-2.610;2023-03-07T00:21:29;99172.23;;;5.95;100.00
55277;BME280;41136;51.478;-2.610;2023-03-07T00:23:54;99164.46;;;6.31;100.00
55277;BME280;41136;51.478;-2.610;2023-03-07T00:26:21;99165.56;;;5.94;100.00
55277;BME280;41136;51.478;-2.610;2023-03-07T00:28:46;99161.74;;;5.36;100.00
55277;BME280;41136;51.478;-2.610;2023-03-07T00:31:10;99159.24;;;6.41;100.00
55277;BME280;41136;51.478;-2.610;2023-03-07T00:33:36;99164.32;;;5.88;100.00
55277;BME280;41136;51.478;-2.610;2023-03-07T00:36:04;99158.82;;;6.67;100.00
55277;BME280;41136;51.478;-2.610;2023-03-07T00:38:28;99155.67;;;6.48;100.00
55277;BME280;41136;51.478;-2.610;2023-03-07T00:40:57;99154.49;;;6.42;100.00
55277;BME280;41136;51.478;-2.610;2023-03-07T00:43:17;99148.93;;;6.85;100.00
55277;BME280;41136;51.478;-2.610;2023-03-07T00:45:43;99148.10;;;7.51;100.00
55277;BME280;41136;51.478;-2.610;2023-03-07T00:48:08;99137.32;;;6.22;100.00
55277;BME280;41136;51.478;-2.610;2023-03-07T00:50:34;99142.94;;;6.43;100.00
55277;BME280;41136;51.478;-2.610;2023-03-07T00:52:59;99145.29;;;6.65;100.00
55277;BME280;41136;51.478;-2.610;2023-03-07T00:55:24;99139.50;;;6.37;100.00
55277;BME280;41136;51.478;-2.610;2023-03-07T00:57:50;99140.57;;;6.27;100.00
55277;BME280;41136;51.478;-2.610;2023-03-07T01:00:16;99138.98;;;6.38;100.00
55277;BME280;41136;51.478;-2.610;2023-03-07T01:02:41;99135.26;;;6.17;100.00
55277;BME280;41136;51.478;-2.610;2023-03-07T01:05:07;99140.23;;;7.10;100.00
55277;BME280;41136;51.478;-2.610;2023-03-07T01:07:32;99133.90;;;5.98;100.00
55277;BME280;41136;51.478;-2.610;2023-03-07T01:09:57;99138.12;;;6.11;100.00
55277;BME280;41136;51.478;-2.610;2023-03-07T01:12:22;99134.75;;;5.59;100.00
55277;BME280;41136;51.478;-2.610;2023-03-07T01:14:49;99130.93;;;5.72;100.00
55277;BME280;41136;51.478;-2.610;2023-03-07T01:17:15;99137.87;;;4.87;100.00
55277;BME280;41136;51.478;-2.610;2023-03-07T01:19:39;99140.56;;;5.06;100.00
55277;BME280;41136;51.478;-2.610;2023-03-07T01:22:04;99144.45;;;5.48;100.00
55277;BME280;41136;51.478;-2.610;2023-03-07T01:24:30;99137.99;;;5.31;100.00
55277;BME280;41136;51.478;-2.610;2023-03-07T01:26:55;99134.29;;;5.52;100.00
55277;BME280;41136;51.478;-2.610;2023-03-07T01:29:20;99132.23;;;5.23;100.00
55277;BME280;41136;51.478;-2.610;2023-03-07T01:31:46;99131.22;;;5.34;100.00
55277;BME280;41136;51.478;-2.610;2023-03-07T01:34:11;99118.92;;;5.55;100.00
55277;BME280;41136;51.478;-2.610;2023-03-07T01:36:37;99120.09;;;6.06;100.00
55277;BME280;41136;51.478;-2.610;2023-03-07T01:39:04;99140.80;;;4.70;100.00
55277;BME280;41136;51.478;-2.610;2023-03-07T01:41:28;99168.89;;;3.73;100.00
55277;BME280;41136;51.478;-2.610;2023-03-07T01:43:53;99161.60;;;3.37;100.00
55277;BME280;41136;51.478;-2.610;2023-03-07T01:46:29;99167.01;;;2.86;100.00
55277;BME280;41136;51.478;-2.610;2023-03-07T01:48:45;99170.32;;;2.89;100.00
55277;BME280;41136;51.478;-2.610;2023-03-07T01:51:09;99169.25;;;1.63;100.00
55277;BME280;41136;51.478;-2.610;2023-03-07T01:53:35;99166.37;;;3.78;100.00
55277;BME280;41136;51.478;-2.610;2023-03-07T01:56:00;99165.57;;;3.22;100.00
55277;BME280;41136;51.478;-2.610;2023-03-07T01:58:26;99166.13;;;2.10;100.00
55277;BME280;41136;51.478;-2.610;2023-03-07T02:00:51;99162.00;;;2.22;100.00
55277;BME280;41136;51.478;-2.610;2023-03-07T02:03:21;99167.50;;;2.95;100.00
55277;BME280;41136;51.478;-2.610;2023-03-07T02:05:48;99169.58;;;3.05;100.00
55277;BME280;41136;51.478;-2.610;2023-03-07T02:08:10;99164.78;;;2.53;100.00
55277;BME280;41136;51.478;-2.610;2023-03-07T02:10:34;99166.71;;;3.05;100.00
55277;BME280;41136;51.478;-2.610;2023-03-07T02:12:59;99166.40;;;3.02;100.00
55277;BME280;41136;51.478;-2.610;2023-03-07T02:15:24;99165.37;;;1.60;100.00
55277;BME280;41136;51.478;-2.610;2023-03-07T02:17:50;99165.57;;;2.75;100.00
55277;BME280;41136;51.478;-2.610;2023-03-07T02:20:24;99166.02;;;2.25;100.00
55277;BME280;41136;51.478;-2.610;2023-03-07T02:22:41;99171.51;;;2.63;100.00
55277;BME280;41136;51.478;-2.610;2023-03-07T02:25:12;99170.22;;;3.44;100.00
55277;BME280;41136;51.478;-2.610;2023-03-07T02:27:33;99166.19;;;3.88;100.00
55277;BME280;41136;51.478;-2.610;2023-03-07T02:29:57;99166.34;;;4.33;100.00
55277;BME280;41136;51.478;-2.610;2023-03-07T02:32:23;99169.57;;;4.56;100.00
55277;BME280;41136;51.478;-2.610;2023-03-07T02:34:48;99167.21;;;4.68;100.00
55277;BME280;41136;51.478;-2.610;2023-03-07T02:37:17;99175.77;;;3.20;100.00
55277;BME280;41136;51.478;-2.610;2023-03-07T02:39:41;99173.52;;;4.35;100.00
55277;BME280;41136;51.478;-2.610;2023-03-07T02:42:08;99169.89;;;4.27;100.00
55277;BME280;41136;51.478;-2.610;2023-03-07T02:44:30;99171.21;;;4.76;100.00
55277;BME280;41136;51.478;-2.610;2023-03-07T02:46:56;99176.69;;;4.19;100.00
55277;BME280;41136;51.478;-2.610;2023-03-07T02:52:18;99162.15;;;4.32;100.00
55277;BME280;41136;51.478;-2.610;2023-03-07T02:54:43;99159.84;;;5.45;100.00
55277;BME280;41136;51.478;-2.610;2023-03-07T02:57:09;99162.29;;;5.49;100.00
55277;BME280;41136;51.478;-2.610;2023-03-07T02:59:34;99161.50;;;5.69;100.00
55277;BME280;41136;51.478;-2.610;2023-03-07T03:02:00;99161.81;;;6.32;100.00
55277;BME280;41136;51.478;-2.610;2023-03-07T03:04:25;99161.28;;;5.47;100.00
55277;BME280;41136;51.478;-2.610;2023-03-07T03:06:51;99160.19;;;5.02;100.00
55277;BME280;41136;51.478;-2.610;2023-03-07T03:09:16;99157.46;;;5.18;100.00
55277;BME280;41136;51.478;-2.610;2023-03-07T03:11:42;99163.15;;;4.49;100.00
55277;BME280;41136;51.478;-2.610;2023-03-07T03:14:07;99167.32;;;4.75;100.00
55277;BME280;41136;51.478;-2.610;2023-03-07T03:16:33;99167.05;;;3.95;100.00
55277;BME280;41136;51.478;-2.610;2023-03-07T03:18:58;99166.86;;;4.28;100.00
55277;BME280;41136;51.478;-2.610;2023-03-07T03:21:24;99165.21;;;4.80;100.00
55277;BME280;41136;51.478;-2.610;2023-03-07T03:23:49;99167.22;;;4.95;100.00
55277;BME280;41136;51.478;-2.610;2023-03-07T03:26:15;99169.32;;;4.87;100.00
55277;BME280;41136;51.478;-2.610;2023-03-07T03:28:40;99171.01;;;4.89;100.00
55277;BME280;41136;51.478;-2.610;2023-03-07T03:31:08;99174.61;;;4.74;100.00
55277;BME280;41136;51.478;-2.610;2023-03-07T03:33:31;99168.61;;;5.40;100.00
55277;BME280;41136;51.478;-2.610;2023-03-07T03:35:58;99165.36;;;5.37;100.00
55277;BME280;41136;51.478;-2.610;2023-03-07T03:38:22;99159.93;;;5.39;100.00
55277;BME280;41136;51.478;-2.610;2023-03-07T03:40:48;99157.03;;;5.18;100.00
55277;BME280;41136;51.478;-2.610;2023-03-07T03:43:13;99152.54;;;4.71;100.00
55277;BME280;41136;51.478;-2.610;2023-03-07T03:45:39;99150.60;;;5.46;100.00
55277;BME280;41136;51.478;-2.610;2023-03-07T03:48:05;99153.16;;;5.47;100.00
55277;BME280;41136;51.478;-2.610;2023-03-07T03:50:30;99161.65;;;5.84;100.00
55277;BME280;41136;51.478;-2.610;2023-03-07T03:52:55;99160.88;;;5.73;100.00
55277;BME280;41136;51.478;-2.610;2023-03-07T03:55:21;99164.09;;;5.61;100.00
55277;BME280;41136;51.478;-2.610;2023-03-07T03:57:46;99163.84;;;5.76;100.00
55277;BME280;41136;51.478;-2.610;2023-03-07T04:00:13;99166.18;;;5.67;100.00
55277;BME280;41136;51.478;-2.610;2023-03-07T04:02:37;99161.63;;;5.73;100.00
55277;BME280;41136;51.478;-2.610;2023-03-07T04:05:03;99156.72;;;5.65;100.00
55277;BME280;41136;51.478;-2.610;2023-03-07T04:07:28;99154.53;;;5.47;100.00
55277;BME280;41136;51.478;-2.610;2023-03-07T04:09:54;99149.91;;;5.22;100.00
55277;BME280;41136;51.478;-2.610;2023-03-07T04:12:19;99152.76;;;5.58;100.00
55277;BME280;41136;51.478;-2.610;2023-03-07T04:14:45;99146.49;;;5.86;100.00
55277;BME280;41136;51.478;-2.610;2023-03-07T04:17:10;99147.85;;;5.46;100.00
55277;BME280;41136;51.478;-2.610;2023-03-07T04:19:36;99141.68;;;5.65;100.00
55277;BME280;41136;51.478;-2.610;2023-03-07T04:22:01;99142.32;;;6.42;100.00
55277;BME280;41136;51.478;-2.610;2023-03-07T04:24:27;99135.72;;;6.60;100.00
55277;BME280;41136;51.478;-2.610;2023-03-07T04:26:52;99137.44;;;6.57;100.00
55277;BME280;41136;51.478;-2.610;2023-03-07T04:29:18;99132.02;;;6.53;100.00
55277;BME280;41136;51.478;-2.610;2023-03-07T04:31:43;99131.72;;;6.75;100.00
55277;BME280;41136;51.478;-2.610;2023-03-07T04:34:09;99129.98;;;6.64;100.00
55277;BME280;41136;51.478;-2.610;2023-03-07T04:36:34;99131.98;;;6.45;100.00
55277;BME280;41136;51.478;-2.610;2023-03-07T04:39:00;99132.71;;;6.69;100.00
55277;BME280;41136;51.478;-2.610;2023-03-07T04:41:25;99131.40;;;6.81;100.00
55277;BME280;41136;51.478;-2.610;2023-03-07T04:43:51;99128.67;;;6.70;100.00
55277;BME280;41136;51.478;-2.610;2023-03-07T04:46:17;99127.82;;;6.63;100.00
55277;BME280;41136;51.478;-2.610;2023-03-07T04:48:42;99126.38;;;6.03;100.00
55277;BME280;41136;51.478;-2.610;2023-03-07T04:51:08;99123.87;;;5.98;100.00
55277;BME280;41136;51.478;-2.610;2023-03-07T04:53:33;99120.73;;;6.66;100.00
55277;BME280;41136;51.478;-2.610;2023-03-07T04:55:59;99118.75;;;6.83;100.00
55277;BME280;41136;51.478;-2.610;2023-03-07T04:58:24;99116.91;;;6.25;100.00
55277;BME280;41136;51.478;-2.610;2023-03-07T05:00:50;99114.77;;;6.37;100.00
55277;BME280;41136;51.478;-2.610;2023-03-07T05:03:15;99110.94;;;6.94;100.00
55277;BME280;41136;51.478;-2.610;2023-03-07T05:05:40;99107.91;;;6.84;100.00
55277;BME280;41136;51.478;-2.610;2023-03-07T05:08:06;99112.72;;;6.85;100.00
55277;BME280;41136;51.478;-2.610;2023-03-07T05:10:32;99120.67;;;6.41;100.00
55277;BME280;41136;51.478;-2.610;2023-03-07T05:12:57;99124.10;;;5.98;100.00
55277;BME280;41136;51.478;-2.610;2023-03-07T05:15:22;99119.27;;;6.61;100.00
55277;BME280;41136;51.478;-2.610;2023-03-07T05:17:48;99116.67;;;7.03;100.00
55277;BME280;41136;51.478;-2.610;2023-03-07T05:20:13;99113.11;;;6.92;100.00
55277;BME280;41136;51.478;-2.610;2023-03-07T05:22:39;99114.93;;;6.54;100.00
55277;BME280;41136;51.478;-2.610;2023-03-07T05:25:05;99113.06;;;6.62;100.00
55277;BME280;41136;51.478;-2.610;2023-03-07T05:27:30;99116.67;;;6.78;100.00
55277;BME280;41136;51.478;-2.610;2023-03-07T05:29:55;99122.04;;;6.39;100.00
55277;BME280;41136;51.478;-2.610;2023-03-07T05:32:21;99126.42;;;6.46;100.00
55277;BME280;41136;51.478;-2.610;2023-03-07T05:34:46;99126.47;;;6.63;100.00
55277;BME280;41136;51.478;-2.610;2023-03-07T05:37:12;99130.97;;;6.50;100.00
55277;BME280;41136;51.478;-2.610;2023-03-07T05:39:37;99130.20;;;6.18;100.00
55277;BME280;41136;51.478;-2.610;2023-03-07T05:42:03;99133.18;;;5.88;100.00
55277;BME280;41136;51.478;-2.610;2023-03-07T05:44:28;99132.33;;;6.06;100.00
55277;BME280;41136;51.478;-2.610;2023-03-07T05:46:54;99137.78;;;5.83;100.00
55277;BME280;41136;51.478;-2.610;2023-03-07T05:49:19;99133.60;;;6.31;100.00
55277;BME280;41136;51.478;-2.610;2023-03-07T05:51:45;99132.64;;;6.17;100.00
55277;BME280;41136;51.478;-2.610;2023-03-07T05:54:10;99131.79;;;5.87;100.00
55277;BME280;41136;51.478;-2.610;2023-03-07T05:56:36;99134.30;;;5.84;100.00
55277;BME280;41136;51.478;-2.610;2023-03-07T05:59:01;99133.60;;;6.07;100.00
55277;BME280;41136;51.478;-2.610;2023-03-07T06:01:26;99127.93;;;6.74;100.00
55277;BME280;41136;51.478;-2.610;2023-03-07T06:03:52;99128.05;;;7.00;100.00
55277;BME280;41136;51.478;-2.610;2023-03-07T06:06:17;99126.34;;;7.07;99.90
55277;BME280;41136;51.478;-2.610;2023-03-07T06:08:43;99128.12;;;7.16;99.33
55277;BME280;41136;51.478;-2.610;2023-03-07T06:11:09;99126.69;;;7.21;99.63
55277;BME280;41136;51.478;-2.610;2023-03-07T06:13:34;99121.65;;;7.31;99.28
55277;BME280;41136;51.478;-2.610;2023-03-07T06:15:59;99117.27;;;6.95;99.56
55277;BME280;41136;51.478;-2.610;2023-03-07T06:18:25;99117.25;;;7.19;100.00
55277;BME280;41136;51.478;-2.610;2023-03-07T06:20:55;99119.81;;;7.48;99.70
55277;BME280;41136;51.478;-2.610;2023-03-07T06:23:16;99118.59;;;6.59;100.00
55277;BME280;41136;51.478;-2.610;2023-03-07T06:25:41;99115.85;;;7.18;100.00
55277;BME280;41136;51.478;-2.610;2023-03-07T06:28:07;99112.56;;;7.49;98.74
55277;BME280;41136;51.478;-2.610;2023-03-07T06:30:32;99112.09;;;7.36;99.22
55277;BME280;41136;51.478;-2.610;2023-03-07T06:32:58;99116.79;;;6.61;100.00
55277;BME280;41136;51.478;-2.610;2023-03-07T06:35:23;99119.58;;;6.62;100.00
55277;BME280;41136;51.478;-2.610;2023-03-07T06:37:49;99122.68;;;6.57;100.00
55277;BME280;41136;51.478;-2.610;2023-03-07T06:40:15;99123.92;;;7.11;99.86
55277;BME280;41136;51.478;-2.610;2023-03-07T06:42:39;99125.99;;;7.21;98.98
55277;BME280;41136;51.478;-2.610;2023-03-07T06:45:06;99124.00;;;7.42;97.41
55277;BME280;41136;51.478;-2.610;2023-03-07T06:47:30;99124.71;;;7.09;98.14
55277;BME280;41136;51.478;-2.610;2023-03-07T06:49:56;99120.58;;;7.12;98.20
55277;BME280;41136;51.478;-2.610;2023-03-07T06:52:22;99123.33;;;6.69;99.74
55277;BME280;41136;51.478;-2.610;2023-03-07T06:54:47;99123.03;;;6.94;99.07
55277;BME280;41136;51.478;-2.610;2023-03-07T06:57:13;99124.91;;;6.98;98.48
55277;BME280;41136;51.478;-2.610;2023-03-07T06:59:38;99126.71;;;6.72;99.71
55277;BME280;41136;51.478;-2.610;2023-03-07T07:02:04;99134.57;;;7.05;98.87
55277;BME280;41136;51.478;-2.610;2023-03-07T07:04:29;99135.21;;;6.78;98.75
55277;BME280;41136;51.478;-2.610;2023-03-07T07:06:54;99135.46;;;6.75;99.25
55277;BME280;41136;51.478;-2.610;2023-03-07T07:09:20;99136.92;;;6.62;99.77
55277;BME280;41136;51.478;-2.610;2023-03-07T07:11:45;99138.97;;;7.14;98.94
55277;BME280;41136;51.478;-2.610;2023-03-07T07:14:11;99138.91;;;7.05;97.81
55277;BME280;41136;51.478;-2.610;2023-03-07T07:16:36;99138.66;;;6.98;97.99
55277;BME280;41136;51.478;-2.610;2023-03-07T07:19:02;99140.19;;;7.60;95.76
55277;BME280;41136;51.478;-2.610;2023-03-07T07:21:27;99138.74;;;6.56;97.95
55277;BME280;41136;51.478;-2.610;2023-03-07T07:23:55;99140.95;;;6.44;99.52
55277;BME280;41136;51.478;-2.610;2023-03-07T07:26:18;99143.23;;;7.03;98.73
55277;BME280;41136;51.478;-2.610;2023-03-07T07:28:43;99143.90;;;6.65;98.77
55277;BME280;41136;51.478;-2.610;2023-03-07T07:31:09;99145.55;;;7.40;98.17
55277;BME280;41136;51.478;-2.610;2023-03-07T07:33:34;99150.18;;;7.15;98.37
55277;BME280;41136;51.478;-2.610;2023-03-07T07:36:00;99148.22;;;6.34;98.54
55277;BME280;41136;51.478;-2.610;2023-03-07T07:38:25;99148.84;;;5.91;99.64
55277;BME280;41136;51.478;-2.610;2023-03-07T07:40:51;99147.61;;;6.32;100.00
55277;BME280;41136;51.478;-2.610;2023-03-07T07:43:17;99147.44;;;5.61;100.00
55277;BME280;41136;51.478;-2.610;2023-03-07T07:45:42;99151.26;;;5.70;100.00
55277;BME280;41136;51.478;-2.610;2023-03-07T07:48:08;99154.73;;;4.97;100.00
55277;BME280;41136;51.478;-2.610;2023-03-07T07:50:33;99153.63;;;5.39;100.00
55277;BME280;41136;51.478;-2.610;2023-03-07T07:52:58;99152.23;;;6.53;100.00
55277;BME280;41136;51.478;-2.610;2023-03-07T07:55:24;99153.26;;;5.54;100.00
55277;BME280;41136;51.478;-2.610;2023-03-07T07:57:49;99155.27;;;6.74;100.00
55277;BME280;41136;51.478;-2.610;2023-03-07T08:00:16;99155.79;;;6.32;100.00
55277;BME280;41136;51.478;-2.610;2023-03-07T08:02:40;99155.24;;;6.50;100.00
55277;BME280;41136;51.478;-2.610;2023-03-07T08:05:06;99155.02;;;5.86;100.00
55277;BME280;41136;51.478;-2.610;2023-03-07T08:07:31;99158.96;;;5.18;100.00
55277;BME280;41136;51.478;-2.610;2023-03-07T08:09:56;99160.51;;;4.54;100.00
55277;BME280;41136;51.478;-2.610;2023-03-07T08:12:22;99167.69;;;4.25;100.00
55277;BME280;41136;51.478;-2.610;2023-03-07T08:14:47;99165.32;;;4.03;100.00
55277;BME280;41136;51.478;-2.610;2023-03-07T08:17:12;99166.03;;;3.78;100.00
55277;BME280;41136;51.478;-2.610;2023-03-07T08:19:38;99168.24;;;4.06;100.00
55277;BME280;41136;51.478;-2.610;2023-03-07T08:22:04;99166.43;;;3.53;100.00
55277;BME280;41136;51.478;-2.610;2023-03-07T08:24:29;99174.36;;;3.88;100.00
55277;BME280;41136;51.478;-2.610;2023-03-07T08:26:54;99171.04;;;4.12;100.00
55277;BME280;41136;51.478;-2.610;2023-03-07T08:29:20;99182.37;;;3.99;100.00
55277;BME280;41136;51.478;-2.610;2023-03-07T08:31:45;99185.50;;;3.48;100.00
55277;BME280;41136;51.478;-2.610;2023-03-07T08:34:11;99187.55;;;3.32;100.00
55277;BME280;41136;51.478;-2.610;2023-03-07T08:36:36;99186.48;;;3.25;100.00
55277;BME280;41136;51.478;-2.610;2023-03-07T08:39:02;99186.92;;;4.07;100.00
55277;BME280;41136;51.478;-2.610;2023-03-07T08:41:27;99186.18;;;3.85;100.00
55277;BME280;41136;51.478;-2.610;2023-03-07T08:43:53;99187.18;;;3.42;100.00
55277;BME280;41136;51.478;-2.610;2023-03-07T08:46:18;99187.94;;;4.05;100.00
55277;BME280;41136;51.478;-2.610;2023-03-07T08:48:44;99192.16;;;3.09;100.00
55277;BME280;41136;51.478;-2.610;2023-03-07T08:51:11;99193.10;;;2.94;100.00
55277;BME280;41136;51.478;-2.610;2023-03-07T08:53:35;99198.65;;;2.71;100.00
55277;BME280;41136;51.478;-2.610;2023-03-07T08:56:04;99198.57;;;3.45;100.00
55277;BME280;41136;51.478;-2.610;2023-03-07T08:58:25;99205.52;;;3.31;100.00
55277;BME280;41136;51.478;-2.610;2023-03-07T09:00:51;99203.82;;;2.32;100.00
55277;BME280;41136;51.478;-2.610;2023-03-07T09:03:16;99202.21;;;2.10;100.00
55277;BME280;41136;51.478;-2.610;2023-03-07T09:05:42;99203.24;;;3.22;100.00
55277;BME280;41136;51.478;-2.610;2023-03-07T09:08:07;99198.22;;;2.05;100.00
55277;BME280;41136;51.478;-2.610;2023-03-07T09:10:33;99202.60;;;1.78;100.00
55277;BME280;41136;51.478;-2.610;2023-03-07T09:12:58;99196.99;;;2.20;100.00
55277;BME280;41136;51.478;-2.610;2023-03-07T09:15:24;99200.75;;;3.69;100.00
55277;BME280;41136;51.478;-2.610;2023-03-07T09:17:49;99199.38;;;3.31;100.00
55277;BME280;41136;51.478;-2.610;2023-03-07T09:20:15;99199.59;;;3.53;100.00
55277;BME280;41136;51.478;-2.610;2023-03-07T09:22:40;99203.08;;;2.80;100.00
55277;BME280;41136;51.478;-2.610;2023-03-07T09:25:06;99199.35;;;2.42;100.00
55277;BME280;41136;51.478;-2.610;2023-03-07T09:27:31;99201.86;;;1.73;100.00
55277;BME280;41136;51.478;-2.610;2023-03-07T09:29:57;99201.42;;;1.57;100.00
55277;BME280;41136;51.478;-2.610;2023-03-07T09:32:22;99196.42;;;1.91;100.00
55277;BME280;41136;51.478;-2.610;2023-03-07T09:34:47;99199.04;;;3.52;100.00
55277;BME280;41136;51.478;-2.610;2023-03-07T09:37:13;99194.62;;;1.97;100.00
55277;BME280;41136;51.478;-2.610;2023-03-07T09:39:39;99195.04;;;2.73;100.00
55277;BME280;41136;51.478;-2.610;2023-03-07T09:42:10;99196.73;;;3.47;100.00
55277;BME280;41136;51.478;-2.610;2023-03-07T09:44:38;99196.07;;;3.68;100.00
55277;BME280;41136;51.478;-2.610;2023-03-07T09:47:05;99193.80;;;3.53;100.00
55277;BME280;41136;51.478;-2.610;2023-03-07T09:49:26;99197.09;;;4.09;100.00
55277;BME280;41136;51.478;-2.610;2023-03-07T09:51:48;99195.90;;;4.38;100.00
55277;BME280;41136;51.478;-2.610;2023-03-07T09:54:15;99184.90;;;5.33;100.00
55277;BME280;41136;51.478;-2.610;2023-03-07T09:56:41;99183.56;;;5.22;100.00
55277;BME280;41136;51.478;-2.610;2023-03-07T09:59:08;99181.88;;;5.71;100.00
55277;BME280;41136;51.478;-2.610;2023-03-07T10:01:29;99181.88;;;5.40;100.00
55277;BME280;41136;51.478;-2.610;2023-03-07T10:03:58;99179.73;;;6.67;100.00
55277;BME280;41136;51.478;-2.610;2023-03-07T10:06:23;99175.73;;;6.80;99.93
55277;BME280;41136;51.478;-2.610;2023-03-07T10:08:44;99172.97;;;6.62;99.30
55277;BME280;41136;51.478;-2.610;2023-03-07T10:11:21;99173.84;;;6.66;100.00
55277;BME280;41136;51.478;-2.610;2023-03-07T10:13:46;99173.55;;;7.08;97.74
55277;BME280;41136;51.478;-2.610;2023-03-07T10:16:04;99171.64;;;7.46;93.64
55277;BME280;41136;51.478;-2.610;2023-03-07T10:18:38;99172.70;;;7.63;94.04
55277;BME280;41136;51.478;-2.610;2023-03-07T10:20:56;99175.20;;;7.26;94.69
55277;BME280;41136;51.478;-2.610;2023-03-07T10:23:30;99172.83;;;7.16;95.73
55277;BME280;41136;51.478;-2.610;2023-03-07T10:25:48;99171.55;;;7.17;91.50
55277;BME280;41136;51.478;-2.610;2023-03-07T10:28:15;99170.63;;;6.65;89.89
55277;BME280;41136;51.478;-2.610;2023-03-07T10:30:33;99178.21;;;6.49;92.47
55277;BME280;41136;51.478;-2.610;2023-03-07T10:32:59;99181.52;;;6.52;92.93
55277;BME280;41136;51.478;-2.610;2023-03-07T10:35:34;99181.19;;;6.33;94.34
55277;BME280;41136;51.478;-2.610;2023-03-07T10:37:51;99181.73;;;7.07;93.55
55277;BME280;41136;51.478;-2.610;2023-03-07T10:40:22;99186.99;;;8.00;89.19
55277;BME280;41136;51.478;-2.610;2023-03-07T10:42:40;99192.61;;;7.42;89.50
55277;BME280;41136;51.478;-2.610;2023-03-07T10:45:10;99196.59;;;7.18;86.71
55277;BME280;41136;51.478;-2.610;2023-03-07T10:47:31;99201.04;;;7.19;84.63
55277;BME280;41136;51.478;-2.610;2023-03-07T10:50:01;99194.76;;;7.58;87.13
55277;BME280;41136;51.478;-2.610;2023-03-07T10:52:31;99197.77;;;7.22;89.78
55277;BME280;41136;51.478;-2.610;2023-03-07T10:54:47;99204.75;;;6.89;93.26
55277;BME280;41136;51.478;-2.610;2023-03-07T10:57:14;99209.33;;;6.15;91.33
55277;BME280;41136;51.478;-2.610;2023-03-07T10:59:39;99212.02;;;7.45;93.86
55277;BME280;41136;51.478;-2.610;2023-03-07T11:06:56;99213.66;;;6.86;92.69
55277;BME280;41136;51.478;-2.610;2023-03-07T11:09:25;99219.05;;;7.04;90.24
55277;BME280;41136;51.478;-2.610;2023-03-07T11:11:49;99218.58;;;6.75;91.89
55277;BME280;41136;51.478;-2.610;2023-03-07T11:14:12;99219.04;;;7.11;88.85
55277;BME280;41136;51.478;-2.610;2023-03-07T11:16:40;99219.97;;;7.48;88.41
55277;BME280;41136;51.478;-2.610;2023-03-07T11:19:01;99213.09;;;7.27;90.30
55277;BME280;41136;51.478;-2.610;2023-03-07T11:21:30;99213.55;;;7.07;91.18
55277;BME280;41136;51.478;-2.610;2023-03-07T11:23:58;99208.31;;;7.47;92.09
55277;BME280;41136;51.478;-2.610;2023-03-07T11:26:21;99207.95;;;5.66;95.83
55277;BME280;41136;51.478;-2.610;2023-03-07T11:28:42;99204.62;;;7.16;98.55
55277;BME280;41136;51.478;-2.610;2023-03-07T11:31:13;99207.13;;;6.71;97.22
55277;BME280;41136;51.478;-2.610;2023-03-07T11:33:44;99207.42;;;6.17;96.46
55277;BME280;41136;51.478;-2.610;2023-03-07T11:36:01;99209.24;;;6.21;94.36
55277;BME280;41136;51.478;-2.610;2023-03-07T11:38:33;99212.27;;;7.90;93.40
55277;BME280;41136;51.478;-2.610;2023-03-07T11:40:55;99215.06;;;7.01;92.86
55277;BME280;41136;51.478;-2.610;2023-03-07T11:43:19;99223.87;;;6.45;94.26
55277;BME280;41136;51.478;-2.610;2023-03-07T11:45:48;99223.57;;;7.21;95.04
55277;BME280;41136;51.478;-2.610;2023-03-07T11:48:18;99220.67;;;7.25;90.34
55277;BME280;41136;51.478;-2.610;2023-03-07T11:50:32;99220.13;;;7.50;87.31
55277;BME280;41136;51.478;-2.610;2023-03-07T11:55:26;99217.44;;;7.02;86.04
55277;BME280;41136;51.478;-2.610;2023-03-07T11:57:56;99225.77;;;7.02;85.52
55277;BME280;41136;51.478;-2.610;2023-03-07T12:00:22;99225.11;;;7.40;86.31
55277;BME280;41136;51.478;-2.610;2023-03-07T12:02:50;99223.87;;;7.41;87.72
55277;BME280;41136;51.478;-2.610;2023-03-07T12:07:43;99230.46;;;6.95;81.70
55277;BME280;41136;51.478;-2.610;2023-03-07T12:09:58;99225.93;;;8.09;83.92
55277;BME280;41136;51.478;-2.610;2023-03-07T12:12:33;99231.16;;;8.17;80.58
55277;BME280;41136;51.478;-2.610;2023-03-07T12:14:50;99230.19;;;8.15;81.00
55277;BME280;41136;51.478;-2.610;2023-03-07T12:17:19;99226.47;;;7.20;82.52
55277;BME280;41136;51.478;-2.610;2023-03-07T12:19:52;99222.37;;;7.57;81.60
55277;BME280;41136;51.478;-2.610;2023-03-07T12:22:15;99220.36;;;7.78;82.31
55277;BME280;41136;51.478;-2.610;2023-03-07T12:24:31;99225.56;;;7.63;81.90
55277;BME280;41136;51.478;-2.610;2023-03-07T12:26:58;99225.01;;;7.37;83.85
55277;BME280;41136;51.478;-2.610;2023-03-07T12:29:25;99227.27;;;7.71;83.48
55277;BME280;41136;51.478;-2.610;2023-03-07T12:31:46;99229.21;;;7.28;83.67
55277;BME280;41136;51.478;-2.610;2023-03-07T12:34:13;99231.64;;;7.40;86.38
55277;BME280;41136;51.478;-2.610;2023-03-07T12:36:39;99233.47;;;7.65;86.25
55277;BME280;41136;51.478;-2.610;2023-03-07T12:39:07;99237.93;;;6.64;86.19
55277;BME280;41136;51.478;-2.610;2023-03-07T12:41:34;99243.07;;;6.70;87.95
55277;BME280;41136;51.478;-2.610;2023-03-07T12:43:53;99240.87;;;7.22;84.91
55277;BME280;41136;51.478;-2.610;2023-03-07T12:46:22;99237.94;;;7.94;82.41
55277;BME280;41136;51.478;-2.610;2023-03-07T12:48:47;99235.57;;;8.17;81.41
55277;BME280;41136;51.478;-2.610;2023-03-07T12:51:12;99237.60;;;7.55;82.75
55277;BME280;41136;51.478;-2.610;2023-03-07T12:53:36;99241.83;;;7.55;85.35
55277;BME280;41136;51.478;-2.610;2023-03-07T12:56:02;99242.10;;;7.64;84.85